sensor_id;sensor_type;location;lat;lon;timestamp;temperature;humidity
59128;DHT22;44912;52.754;5.994;2023-06-05T00:00:44;11.90;99.90
59128;DHT22;44912;52.754;5.994;2023-06-05T00:03:10;11.90;99.90
59128;DHT22;44912;52.754;5.994;2023-06-05T00:05:35;11.90;99.90
59128;DHT22;44912;52.754;5.994;2023-06-05T00:08:01;11.80;99.90
59128;DHT22;44912;52.754;5.994;2023-06-05T00:10:27;11.80;99.90
59128;DHT22;44912;52.754;5.994;2023-06-05T00:12:53;11.70;99.90
59128;DHT22;44912;52.754;5.994;2023-06-05T00:15:18;11.70;99.90
59128;DHT22;44912;52.754;5.994;2023-06-05T00:17:44;11.70;99.90
59128;DHT22;44912;52.754;5.994;2023-06-05T00:20:11;11.60;99.90
59128;DHT22;44912;52.754;5.994;2023-06-05T00:22:36;11.60;99.90
59128;DHT22;44912;52.754;5.994;2023-06-05T00:25:04;11.50;99.90
59128;DHT22;44912;52.754;5.994;2023-06-05T00:27:30;11.40;99.90
59128;DHT22;44912;52.754;5.994;2023-06-05T00:29:56;11.40;99.90
59128;DHT22;44912;52.754;5.994;2023-06-05T00:32:21;11.40;99.90
59128;DHT22;44912;52.754;5.994;2023-06-05T00:34:47;11.40;99.90
59128;DHT22;44912;52.754;5.994;2023-06-05T00:37:15;11.40;99.90
59128;DHT22;44912;52.754;5.994;2023-06-05T00:39:41;11.30;99.90
59128;DHT22;44912;52.754;5.994;2023-06-05T00:42:07;11.20;99.90
59128;DHT22;44912;52.754;5.994;2023-06-05T00:44:36;11.20;99.90
59128;DHT22;44912;52.754;5.994;2023-06-05T00:47:03;11.20;99.90
59128;DHT22;44912;52.754;5.994;2023-06-05T00:49:30;11.20;99.90
59128;DHT22;44912;52.754;5.994;2023-06-05T00:51:56;11.20;99.90
59128;DHT22;44912;52.754;5.994;2023-06-05T00:54:22;11.20;99.90
59128;DHT22;44912;52.754;5.994;2023-06-05T00:56:48;11.10;99.90
59128;DHT22;44912;52.754;5.994;2023-06-05T00:59:14;11.10;99.90
59128;DHT22;44912;52.754;5.994;2023-06-05T01:01:40;11.10;99.90
59128;DHT22;44912;52.754;5.994;2023-06-05T01:04:08;11.10;99.90
59128;DHT22;44912;52.754;5.994;2023-06-05T01:06:34;11.10;99.90
59128;DHT22;44912;52.754;5.994;2023-06-05T01:09:00;11.00;99.90
59128;DHT22;44912;52.754;5.994;2023-06-05T01:11:57;11.00;99.90
59128;DHT22;44912;52.754;5.994;2023-06-05T01:14:31;10.90;99.90
59128;DHT22;44912;52.754;5.994;2023-06-05T01:17:00;10.90;99.90
59128;DHT22;44912;52.754;5.994;2023-06-05T01:19:28;10.90;99.90
59128;DHT22;44912;52.754;5.994;2023-06-05T01:21:57;10.80;99.90
59128;DHT22;44912;52.754;5.994;2023-06-05T01:24:24;10.80;99.90
59128;DHT22;44912;52.754;5.994;2023-06-05T01:30:00;10.70;99.90
59128;DHT22;44912;52.754;5.994;2023-06-05T01:32:40;10.70;99.90
59128;DHT22;44912;52.754;5.994;2023-06-05T01:35:08;10.60;99.90
59128;DHT22;44912;52.754;5.994;2023-06-05T01:37:39;10.60;99.90
59128;DHT22;44912;52.754;5.994;2023-06-05T01:40:20;10.50;99.90
59128;DHT22;44912;52.754;5.994;2023-06-05T01:42:46;10.50;99.90
59128;DHT22;44912;52.754;5.994;2023-06-05T01:45:13;10.50;99.90
59128;DHT22;44912;52.754;5.994;2023-06-05T01:47:40;10.50;99.90
59128;DHT22;44912;52.754;5.994;2023-06-05T01:50:07;10.50;99.90
59128;DHT22;44912;52.754;5.994;2023-06-05T01:52:39;10.50;99.90
59128;DHT22;44912;52.754;5.994;2023-06-05T01:55:08;10.50;99.90
59128;DHT22;44912;52.754;5.994;2023-06-05T01:57:43;10.50;99.90
59128;DHT22;44912;52.754;5.994;2023-06-05T02:00:10;10.50;99.90
59128;DHT22;44912;52.754;5.994;2023-06-05T02:02:43;10.60;99.90
59128;DHT22;44912;52.754;5.994;2023-06-05T02:05:09;10.60;99.90
59128;DHT22;44912;52.754;5.994;2023-06-05T02:07:40;10.60;99.90
59128;DHT22;44912;52.754;5.994;2023-06-05T02:10:07;10.70;99.90
59128;DHT22;44912;52.754;5.994;2023-06-05T02:12:32;10.70;99.90
59128;DHT22;44912;52.754;5.994;2023-06-05T02:15:01;10.60;99.90
59128;DHT22;44912;52.754;5.994;2023-06-05T02:17:27;10.60;99.90
59128;DHT22;44912;52.754;5.994;2023-06-05T02:19:52;10.60;99.90
59128;DHT22;44912;52.754;5.994;2023-06-05T02:22:18;10.70;99.90
59128;DHT22;44912;52.754;5.994;2023-06-05T02:24:44;10.70;99.90
59128;DHT22;44912;52.754;5.994;2023-06-05T02:27:10;10.70;99.90
59128;DHT22;44912;52.754;5.994;2023-06-05T02:29:39;10.70;99.90
59128;DHT22;44912;52.754;5.994;2023-06-05T02:32:05;10.70;99.90
59128;DHT22;44912;52.754;5.994;2023-06-05T02:34:31;10.80;99.90
59128;DHT22;44912;52.754;5.994;2023-06-05T02:37:01;10.80;99.90
59128;DHT22;44912;52.754;5.994;2023-06-05T02:39:26;10.80;99.90
59128;DHT22;44912;52.754;5.994;2023-06-05T02:41:53;10.80;99.90
59128;DHT22;44912;52.754;5.994;2023-06-05T02:44:18;10.70;99.90
59128;DHT22;44912;52.754;5.994;2023-06-05T02:46:44;10.70;99.90
59128;DHT22;44912;52.754;5.994;2023-06-05T02:49:10;10.60;99.90
59128;DHT22;44912;52.754;5.994;2023-06-05T02:51:35;10.60;99.90
59128;DHT22;44912;52.754;5.994;2023-06-05T02:54:01;10.60;99.90
59128;DHT22;44912;52.754;5.994;2023-06-05T02:56:26;10.60;99.90
59128;DHT22;44912;52.754;5.994;2023-06-05T02:58:53;10.60;99.90
59128;DHT22;44912;52.754;5.994;2023-06-05T03:01:18;10.60;99.90
59128;DHT22;44912;52.754;5.994;2023-06-05T03:03:47;10.70;99.90
59128;DHT22;44912;52.754;5.994;2023-06-05T03:06:14;10.70;99.90
59128;DHT22;44912;52.754;5.994;2023-06-05T03:08:43;10.70;99.90
59128;DHT22;44912;52.754;5.994;2023-06-05T03:11:08;10.70;99.90
59128;DHT22;44912;52.754;5.994;2023-06-05T03:13:34;10.80;99.90
59128;DHT22;44912;52.754;5.994;2023-06-05T03:16:00;10.80;99.90
59128;DHT22;44912;52.754;5.994;2023-06-05T03:18:29;10.90;99.90
59128;DHT22;44912;52.754;5.994;2023-06-05T03:20:55;10.90;99.90
59128;DHT22;44912;52.754;5.994;2023-06-05T03:23:28;11.00;99.90
59128;DHT22;44912;52.754;5.994;2023-06-05T03:25:54;11.00;99.90
59128;DHT22;44912;52.754;5.994;2023-06-05T03:28:21;11.00;99.90
59128;DHT22;44912;52.754;5.994;2023-06-05T03:30:47;11.10;99.90
59128;DHT22;44912;52.754;5.994;2023-06-05T03:33:14;11.10;99.90
59128;DHT22;44912;52.754;5.994;2023-06-05T03:35:41;11.10;99.90
59128;DHT22;44912;52.754;5.994;2023-06-05T03:38:08;11.10;99.90
59128;DHT22;44912;52.754;5.994;2023-06-05T03:40:34;11.10;99.90
59128;DHT22;44912;52.754;5.994;2023-06-05T03:42:59;11.10;99.90
59128;DHT22;44912;52.754;5.994;2023-06-05T03:45:25;11.10;99.90
59128;DHT22;44912;52.754;5.994;2023-06-05T03:47:53;11.20;99.90
59128;DHT22;44912;52.754;5.994;2023-06-05T03:50:20;11.20;99.90
59128;DHT22;44912;52.754;5.994;2023-06-05T03:52:46;11.30;99.90
59128;DHT22;44912;52.754;5.994;2023-06-05T03:55:20;11.30;99.90
59128;DHT22;44912;52.754;5.994;2023-06-05T03:57:47;11.30;99.90
59128;DHT22;44912;52.754;5.994;2023-06-05T04:00:13;11.30;99.90
59128;DHT22;44912;52.754;5.994;2023-06-05T04:02:41;11.30;99.90
59128;DHT22;44912;52.754;5.994;2023-06-05T04:05:07;11.30;99.90
59128;DHT22;44912;52.754;5.994;2023-06-05T04:07:37;11.30;99.90
59128;DHT22;44912;52.754;5.994;2023-06-05T04:10:03;11.40;99.90
59128;DHT22;44912;52.754;5.994;2023-06-05T04:12:28;11.40;99.90
59128;DHT22;44912;52.754;5.994;2023-06-05T04:14:54;11.40;99.90
59128;DHT22;44912;52.754;5.994;2023-06-05T04:17:19;11.50;99.90
59128;DHT22;44912;52.754;5.994;2023-06-05T04:19:45;11.50;99.90
59128;DHT22;44912;52.754;5.994;2023-06-05T04:22:11;11.50;99.90
59128;DHT22;44912;52.754;5.994;2023-06-05T04:24:36;11.60;99.90
59128;DHT22;44912;52.754;5.994;2023-06-05T04:27:04;11.60;99.90
59128;DHT22;44912;52.754;5.994;2023-06-05T04:29:30;11.60;99.90
59128;DHT22;44912;52.754;5.994;2023-06-05T04:31:57;11.60;99.90
59128;DHT22;44912;52.754;5.994;2023-06-05T04:34:23;11.60;99.90
59128;DHT22;44912;52.754;5.994;2023-06-05T04:36:49;11.70;99.90
59128;DHT22;44912;52.754;5.994;2023-06-05T04:39:17;11.70;99.90
59128;DHT22;44912;52.754;5.994;2023-06-05T04:41:44;11.80;99.90
59128;DHT22;44912;52.754;5.994;2023-06-05T04:44:13;11.80;99.90
59128;DHT22;44912;52.754;5.994;2023-06-05T04:46:45;11.90;99.90
59128;DHT22;44912;52.754;5.994;2023-06-05T04:49:14;11.90;99.90
59128;DHT22;44912;52.754;5.994;2023-06-05T04:51:40;12.00;99.90
59128;DHT22;44912;52.754;5.994;2023-06-05T04:54:07;12.00;99.90
59128;DHT22;44912;52.754;5.994;2023-06-05T04:56:33;12.10;99.90
59128;DHT22;44912;52.754;5.994;2023-06-05T04:59:00;12.10;99.90
59128;DHT22;44912;52.754;5.994;2023-06-05T05:01:27;12.20;99.90
59128;DHT22;44912;52.754;5.994;2023-06-05T05:03:53;12.20;99.90
59128;DHT22;44912;52.754;5.994;2023-06-05T05:06:20;12.30;99.90
59128;DHT22;44912;52.754;5.994;2023-06-05T05:08:46;12.40;99.90
59128;DHT22;44912;52.754;5.994;2023-06-05T05:11:16;12.40;99.90
59128;DHT22;44912;52.754;5.994;2023-06-05T05:13:42;12.50;99.90
59128;DHT22;44912;52.754;5.994;2023-06-05T05:16:08;12.60;99.90
59128;DHT22;44912;52.754;5.994;2023-06-05T05:18:35;12.60;99.90
59128;DHT22;44912;52.754;5.994;2023-06-05T05:21:02;12.60;99.90
59128;DHT22;44912;52.754;5.994;2023-06-05T05:23:28;12.70;99.90
59128;DHT22;44912;52.754;5.994;2023-06-05T05:25:53;12.70;99.90
59128;DHT22;44912;52.754;5.994;2023-06-05T05:28:19;12.70;99.90
59128;DHT22;44912;52.754;5.994;2023-06-05T05:30:45;12.80;99.90
59128;DHT22;44912;52.754;5.994;2023-06-05T05:33:10;12.80;99.90
59128;DHT22;44912;52.754;5.994;2023-06-05T05:35:36;12.80;99.90
59128;DHT22;44912;52.754;5.994;2023-06-05T05:38:02;12.90;99.90
59128;DHT22;44912;52.754;5.994;2023-06-05T05:40:27;13.00;99.90
59128;DHT22;44912;52.754;5.994;2023-06-05T05:42:53;13.00;99.90
59128;DHT22;44912;52.754;5.994;2023-06-05T05:45:18;13.10;99.90
59128;DHT22;44912;52.754;5.994;2023-06-05T05:47:44;13.10;99.90
59128;DHT22;44912;52.754;5.994;2023-06-05T05:50:10;13.20;99.90
59128;DHT22;44912;52.754;5.994;2023-06-05T05:52:35;13.30;99.90
59128;DHT22;44912;52.754;5.994;2023-06-05T05:55:01;13.40;99.90
59128;DHT22;44912;52.754;5.994;2023-06-05T05:57:28;13.40;99.90
59128;DHT22;44912;52.754;5.994;2023-06-05T05:59:54;13.50;99.90
59128;DHT22;44912;52.754;5.994;2023-06-05T06:02:20;13.60;99.90
59128;DHT22;44912;52.754;5.994;2023-06-05T06:04:46;13.60;99.90
59128;DHT22;44912;52.754;5.994;2023-06-05T06:07:12;13.70;99.90
59128;DHT22;44912;52.754;5.994;2023-06-05T06:09:38;13.70;99.90
59128;DHT22;44912;52.754;5.994;2023-06-05T06:12:04;13.80;99.90
59128;DHT22;44912;52.754;5.994;2023-06-05T06:14:32;13.90;99.90
59128;DHT22;44912;52.754;5.994;2023-06-05T06:16:58;14.00;99.90
59128;DHT22;44912;52.754;5.994;2023-06-05T06:19:24;14.10;99.90
59128;DHT22;44912;52.754;5.994;2023-06-05T06:21:51;14.10;99.90
59128;DHT22;44912;52.754;5.994;2023-06-05T06:24:17;14.20;99.90
59128;DHT22;44912;52.754;5.994;2023-06-05T06:26:46;14.40;99.90
59128;DHT22;44912;52.754;5.994;2023-06-05T06:29:19;14.40;99.90
59128;DHT22;44912;52.754;5.994;2023-06-05T06:31:49;14.50;99.90
59128;DHT22;44912;52.754;5.994;2023-06-05T06:34:15;14.60;99.90
59128;DHT22;44912;52.754;5.994;2023-06-05T06:36:41;14.70;99.90
59128;DHT22;44912;52.754;5.994;2023-06-05T06:39:10;14.90;99.90
59128;DHT22;44912;52.754;5.994;2023-06-05T06:41:36;15.10;99.90
59128;DHT22;44912;52.754;5.994;2023-06-05T06:44:03;15.20;99.90
59128;DHT22;44912;52.754;5.994;2023-06-05T06:46:29;15.30;99.90
59128;DHT22;44912;52.754;5.994;2023-06-05T06:48:55;15.40;99.90
59128;DHT22;44912;52.754;5.994;2023-06-05T06:51:20;15.50;99.90
59128;DHT22;44912;52.754;5.994;2023-06-05T06:53:47;15.60;99.90
59128;DHT22;44912;52.754;5.994;2023-06-05T06:56:14;15.60;99.90
59128;DHT22;44912;52.754;5.994;2023-06-05T06:58:42;15.70;99.90
59128;DHT22;44912;52.754;5.994;2023-06-05T07:01:07;15.70;99.90
59128;DHT22;44912;52.754;5.994;2023-06-05T07:03:34;15.90;99.90
59128;DHT22;44912;52.754;5.994;2023-06-05T07:06:01;15.90;99.90
59128;DHT22;44912;52.754;5.994;2023-06-05T07:08:26;16.10;99.90
59128;DHT22;44912;52.754;5.994;2023-06-05T07:10:52;16.20;99.90
59128;DHT22;44912;52.754;5.994;2023-06-05T07:13:20;16.10;99.90
59128;DHT22;44912;52.754;5.994;2023-06-05T07:15:47;15.90;99.90
59128;DHT22;44912;52.754;5.994;2023-06-05T07:18:12;15.90;99.90
59128;DHT22;44912;52.754;5.994;2023-06-05T07:20:38;15.80;99.90
59128;DHT22;44912;52.754;5.994;2023-06-05T07:23:03;15.70;99.90
59128;DHT22;44912;52.754;5.994;2023-06-05T07:25:29;15.60;99.90
59128;DHT22;44912;52.754;5.994;2023-06-05T07:27:54;15.60;99.90
59128;DHT22;44912;52.754;5.994;2023-06-05T07:30:20;15.70;99.90
59128;DHT22;44912;52.754;5.994;2023-06-05T07:32:46;15.90;99.90
59128;DHT22;44912;52.754;5.994;2023-06-05T07:35:11;16.00;99.90
59128;DHT22;44912;52.754;5.994;2023-06-05T07:37:38;16.00;99.90
59128;DHT22;44912;52.754;5.994;2023-06-05T07:40:05;16.00;99.90
59128;DHT22;44912;52.754;5.994;2023-06-05T07:42:31;16.10;99.90
59128;DHT22;44912;52.754;5.994;2023-06-05T07:44:57;16.20;99.90
59128;DHT22;44912;52.754;5.994;2023-06-05T07:47:22;16.30;99.90
59128;DHT22;44912;52.754;5.994;2023-06-05T07:50:02;16.40;99.90
59128;DHT22;44912;52.754;5.994;2023-06-05T07:52:30;16.60;99.90
59128;DHT22;44912;52.754;5.994;2023-06-05T07:54:56;16.70;99.90
59128;DHT22;44912;52.754;5.994;2023-06-05T07:57:23;16.90;99.90
59128;DHT22;44912;52.754;5.994;2023-06-05T07:59:53;17.10;99.90
59128;DHT22;44912;52.754;5.994;2023-06-05T08:02:19;17.30;99.90
59128;DHT22;44912;52.754;5.994;2023-06-05T08:04:45;17.40;99.90
59128;DHT22;44912;52.754;5.994;2023-06-05T08:07:11;17.50;99.90
59128;DHT22;44912;52.754;5.994;2023-06-05T08:09:37;17.60;99.90
59128;DHT22;44912;52.754;5.994;2023-06-05T08:12:03;17.80;99.90
59128;DHT22;44912;52.754;5.994;2023-06-05T08:14:29;17.90;99.90
59128;DHT22;44912;52.754;5.994;2023-06-05T08:16:55;18.00;99.90
59128;DHT22;44912;52.754;5.994;2023-06-05T08:19:21;18.10;99.90
59128;DHT22;44912;52.754;5.994;2023-06-05T08:21:50;18.10;99.90
59128;DHT22;44912;52.754;5.994;2023-06-05T08:24:20;18.20;99.90
59128;DHT22;44912;52.754;5.994;2023-06-05T08:26:45;18.30;99.90
59128;DHT22;44912;52.754;5.994;2023-06-05T08:29:11;18.30;99.90
59128;DHT22;44912;52.754;5.994;2023-06-05T08:31:37;18.40;99.90
59128;DHT22;44912;52.754;5.994;2023-06-05T08:34:04;18.50;99.90
59128;DHT22;44912;52.754;5.994;2023-06-05T08:36:30;18.60;99.90
59128;DHT22;44912;52.754;5.994;2023-06-05T08:38:58;18.70;99.90
59128;DHT22;44912;52.754;5.994;2023-06-05T08:41:24;18.70;99.90
59128;DHT22;44912;52.754;5.994;2023-06-05T08:43:50;18.80;99.90
59128;DHT22;44912;52.754;5.994;2023-06-05T08:46:16;19.00;99.90
59128;DHT22;44912;52.754;5.994;2023-06-05T08:48:45;19.30;99.90
59128;DHT22;44912;52.754;5.994;2023-06-05T08:51:12;19.40;99.90
59128;DHT22;44912;52.754;5.994;2023-06-05T08:53:39;19.50;99.90
59128;DHT22;44912;52.754;5.994;2023-06-05T08:56:06;19.60;99.90
59128;DHT22;44912;52.754;5.994;2023-06-05T08:58:34;19.70;99.90
59128;DHT22;44912;52.754;5.994;2023-06-05T09:01:00;19.60;99.90
59128;DHT22;44912;52.754;5.994;2023-06-05T09:03:26;19.60;99.90
59128;DHT22;44912;52.754;5.994;2023-06-05T09:05:53;19.70;99.90
59128;DHT22;44912;52.754;5.994;2023-06-05T09:08:32;19.80;99.90
59128;DHT22;44912;52.754;5.994;2023-06-05T09:13:49;19.90;99.90
59128;DHT22;44912;52.754;5.994;2023-06-05T09:16:15;20.00;99.90
59128;DHT22;44912;52.754;5.994;2023-06-05T09:18:57;20.10;99.90
59128;DHT22;44912;52.754;5.994;2023-06-05T09:21:24;20.10;99.90
59128;DHT22;44912;52.754;5.994;2023-06-05T09:26:49;19.90;99.90
59128;DHT22;44912;52.754;5.994;2023-06-05T09:29:29;20.00;99.90
59128;DHT22;44912;52.754;5.994;2023-06-05T09:31:57;20.20;99.90
59128;DHT22;44912;52.754;5.994;2023-06-05T09:36:49;20.60;99.90
59128;DHT22;44912;52.754;5.994;2023-06-05T09:39:16;20.60;99.90
59128;DHT22;44912;52.754;5.994;2023-06-05T09:41:43;20.80;99.90
59128;DHT22;44912;52.754;5.994;2023-06-05T09:44:10;21.10;99.90
59128;DHT22;44912;52.754;5.994;2023-06-05T09:46:50;21.40;99.90
59128;DHT22;44912;52.754;5.994;2023-06-05T09:49:15;21.60;99.90
59128;DHT22;44912;52.754;5.994;2023-06-05T09:51:43;21.70;99.90
59128;DHT22;44912;52.754;5.994;2023-06-05T09:54:10;21.70;99.90
59128;DHT22;44912;52.754;5.994;2023-06-05T09:56:36;21.70;99.90
59128;DHT22;44912;52.754;5.994;2023-06-05T09:59:06;21.50;99.90
59128;DHT22;44912;52.754;5.994;2023-06-05T10:01:37;21.30;99.90
59128;DHT22;44912;52.754;5.994;2023-06-05T10:04:06;21.40;99.90
59128;DHT22;44912;52.754;5.994;2023-06-05T10:06:33;21.70;99.90
59128;DHT22;44912;52.754;5.994;2023-06-05T10:08:59;21.70;99.90
59128;DHT22;44912;52.754;5.994;2023-06-05T10:11:26;21.50;99.90
59128;DHT22;44912;52.754;5.994;2023-06-05T10:13:53;21.50;99.90
59128;DHT22;44912;52.754;5.994;2023-06-05T10:16:20;21.40;99.90
59128;DHT22;44912;52.754;5.994;2023-06-05T10:18:47;21.60;99.90
59128;DHT22;44912;52.754;5.994;2023-06-05T10:21:16;21.70;99.90
59128;DHT22;44912;52.754;5.994;2023-06-05T10:23:48;21.30;99.90
59128;DHT22;44912;52.754;5.994;2023-06-05T10:31:53;21.60;99.90
59128;DHT22;44912;52.754;5.994;2023-06-05T10:34:49;21.90;99.90
59128;DHT22;44912;52.754;5.994;2023-06-05T10:40:11;22.30;99.90
59128;DHT22;44912;52.754;5.994;2023-06-05T10:42:37;22.70;99.90
59128;DHT22;44912;52.754;5.994;2023-06-05T10:45:03;22.90;99.90
59128;DHT22;44912;52.754;5.994;2023-06-05T10:52:48;21.80;99.90
59128;DHT22;44912;52.754;5.994;2023-06-05T10:55:14;21.70;99.90
59128;DHT22;44912;52.754;5.994;2023-06-05T11:00:32;22.20;99.90
59128;DHT22;44912;52.754;5.994;2023-06-05T11:02:58;22.40;99.90
59128;DHT22;44912;52.754;5.994;2023-06-05T11:05:25;22.90;99.90
59128;DHT22;44912;52.754;5.994;2023-06-05T11:08:11;23.10;99.90
59128;DHT22;44912;52.754;5.994;2023-06-05T11:11:02;23.50;99.90
59128;DHT22;44912;52.754;5.994;2023-06-05T11:13:51;23.60;99.90
59128;DHT22;44912;52.754;5.994;2023-06-05T11:16:30;23.90;99.90
59128;DHT22;44912;52.754;5.994;2023-06-05T11:24:28;23.70;99.90
59128;DHT22;44912;52.754;5.994;2023-06-05T11:26:53;23.50;99.90
59128;DHT22;44912;52.754;5.994;2023-06-05T11:29:19;23.50;99.90
59128;DHT22;44912;52.754;5.994;2023-06-05T11:31:45;23.60;99.90
59128;DHT22;44912;52.754;5.994;2023-06-05T11:34:12;23.80;99.90
59128;DHT22;44912;52.754;5.994;2023-06-05T11:36:38;24.00;99.90
59128;DHT22;44912;52.754;5.994;2023-06-05T11:39:05;24.10;99.90
59128;DHT22;44912;52.754;5.994;2023-06-05T11:41:30;24.20;99.90
59128;DHT22;44912;52.754;5.994;2023-06-05T11:43:56;23.90;99.90
59128;DHT22;44912;52.754;5.994;2023-06-05T11:46:39;23.40;99.90
59128;DHT22;44912;52.754;5.994;2023-06-05T11:49:04;23.10;99.90
59128;DHT22;44912;52.754;5.994;2023-06-05T11:51:34;23.10;99.90
59128;DHT22;44912;52.754;5.994;2023-06-05T11:54:00;23.40;99.90
59128;DHT22;44912;52.754;5.994;2023-06-05T11:56:32;23.60;99.90
59128;DHT22;44912;52.754;5.994;2023-06-05T11:58:58;23.50;99.90
59128;DHT22;44912;52.754;5.994;2023-06-05T12:01:23;23.60;99.90
59128;DHT22;44912;52.754;5.994;2023-06-05T12:04:04;23.90;99.90
59128;DHT22;44912;52.754;5.994;2023-06-05T12:06:30;23.90;99.90
59128;DHT22;44912;52.754;5.994;2023-06-05T12:09:12;23.90;99.90
59128;DHT22;44912;52.754;5.994;2023-06-05T12:11:41;24.00;99.90
59128;DHT22;44912;52.754;5.994;2023-06-05T12:14:10;24.20;99.90
59128;DHT22;44912;52.754;5.994;2023-06-05T12:16:40;24.40;99.90
59128;DHT22;44912;52.754;5.994;2023-06-05T12:19:17;24.20;99.90
59128;DHT22;44912;52.754;5.994;2023-06-05T12:21:47;24.20;99.90
59128;DHT22;44912;52.754;5.994;2023-06-05T12:24:14;24.50;99.90
59128;DHT22;44912;52.754;5.994;2023-06-05T12:29:23;24.50;99.90
59128;DHT22;44912;52.754;5.994;2023-06-05T12:31:49;24.50;99.90
59128;DHT22;44912;52.754;5.994;2023-06-05T12:34:14;24.50;99.90
59128;DHT22;44912;52.754;5.994;2023-06-05T12:36:42;24.20;99.90
59128;DHT22;44912;52.754;5.994;2023-06-05T12:39:14;24.20;99.90
59128;DHT22;44912;52.754;5.994;2023-06-05T12:41:42;24.40;99.90
59128;DHT22;44912;52.754;5.994;2023-06-05T12:44:08;24.50;99.90
59128;DHT22;44912;52.754;5.994;2023-06-05T12:46:34;24.70;99.90
59128;DHT22;44912;52.754;5.994;2023-06-05T12:49:01;24.90;99.90
59128;DHT22;44912;52.754;5.994;2023-06-05T12:51:27;25.00;99.90
59128;DHT22;44912;52.754;5.994;2023-06-05T12:53:54;25.20;99.90
59128;DHT22;44912;52.754;5.994;2023-06-05T12:56:20;25.30;99.90
59128;DHT22;44912;52.754;5.994;2023-06-05T12:58:51;25.10;99.90
59128;DHT22;44912;52.754;5.994;2023-06-05T13:01:16;24.70;99.90
59128;DHT22;44912;52.754;5.994;2023-06-05T13:03:42;24.30;99.90
59128;DHT22;44912;52.754;5.994;2023-06-05T13:06:08;23.80;99.90
59128;DHT22;44912;52.754;5.994;2023-06-05T13:08:34;23.90;99.90
59128;DHT22;44912;52.754;5.994;2023-06-05T13:10:59;24.20;99.90
59128;DHT22;44912;52.754;5.994;2023-06-05T13:13:25;24.20;99.90
59128;DHT22;44912;52.754;5.994;2023-06-05T13:15:50;24.40;99.90
59128;DHT22;44912;52.754;5.994;2023-06-05T13:18:16;24.70;99.90
59128;DHT22;44912;52.754;5.994;2023-06-05T13:20:41;24.80;99.90
59128;DHT22;44912;52.754;5.994;2023-06-05T13:23:07;24.60;99.90
59128;DHT22;44912;52.754;5.994;2023-06-05T13:25:33;24.40;99.90
59128;DHT22;44912;52.754;5.994;2023-06-05T13:27:58;24.30;99.90
59128;DHT22;44912;52.754;5.994;2023-06-05T13:30:24;24.00;99.90
59128;DHT22;44912;52.754;5.994;2023-06-05T13:32:50;23.80;99.90
59128;DHT22;44912;52.754;5.994;2023-06-05T13:35:17;24.10;99.90
59128;DHT22;44912;52.754;5.994;2023-06-05T13:37:43;24.50;99.90
59128;DHT22;44912;52.754;5.994;2023-06-05T13:40:09;24.70;99.90
59128;DHT22;44912;52.754;5.994;2023-06-05T13:42:36;24.70;99.90
59128;DHT22;44912;52.754;5.994;2023-06-05T13:45:02;24.70;99.90
59128;DHT22;44912;52.754;5.994;2023-06-05T13:47:28;24.50;99.90
59128;DHT22;44912;52.754;5.994;2023-06-05T13:49:54;24.50;99.90
59128;DHT22;44912;52.754;5.994;2023-06-05T13:52:20;24.70;99.90
59128;DHT22;44912;52.754;5.994;2023-06-05T13:54:45;24.60;99.90
59128;DHT22;44912;52.754;5.994;2023-06-05T13:57:11;24.30;99.90
59128;DHT22;44912;52.754;5.994;2023-06-05T13:59:37;24.20;99.90
59128;DHT22;44912;52.754;5.994;2023-06-05T14:02:03;24.40;99.90
59128;DHT22;44912;52.754;5.994;2023-06-05T14:04:29;24.50;99.90
59128;DHT22;44912;52.754;5.994;2023-06-05T14:06:54;24.40;99.90
59128;DHT22;44912;52.754;5.994;2023-06-05T14:09:20;24.30;99.90
59128;DHT22;44912;52.754;5.994;2023-06-05T14:11:46;24.30;99.90
59128;DHT22;44912;52.754;5.994;2023-06-05T14:14:12;24.40;99.90
59128;DHT22;44912;52.754;5.994;2023-06-05T14:16:37;24.50;99.90
59128;DHT22;44912;52.754;5.994;2023-06-05T14:19:03;24.60;99.90
59128;DHT22;44912;52.754;5.994;2023-06-05T14:21:28;24.70;99.90
59128;DHT22;44912;52.754;5.994;2023-06-05T14:23:54;24.50;99.90
59128;DHT22;44912;52.754;5.994;2023-06-05T14:26:19;24.00;99.90
59128;DHT22;44912;52.754;5.994;2023-06-05T14:28:47;23.70;99.90
59128;DHT22;44912;52.754;5.994;2023-06-05T14:31:12;23.30;99.90
59128;DHT22;44912;52.754;5.994;2023-06-05T14:33:38;23.10;99.90
59128;DHT22;44912;52.754;5.994;2023-06-05T14:36:04;23.10;99.90
59128;DHT22;44912;52.754;5.994;2023-06-05T14:38:31;23.40;99.90
59128;DHT22;44912;52.754;5.994;2023-06-05T14:40:56;23.70;99.90
59128;DHT22;44912;52.754;5.994;2023-06-05T14:43:23;24.00;99.90
59128;DHT22;44912;52.754;5.994;2023-06-05T14:45:49;24.10;99.90
59128;DHT22;44912;52.754;5.994;2023-06-05T14:48:14;24.20;99.90
59128;DHT22;44912;52.754;5.994;2023-06-05T14:50:40;24.10;99.90
59128;DHT22;44912;52.754;5.994;2023-06-05T14:53:05;24.10;99.90
59128;DHT22;44912;52.754;5.994;2023-06-05T14:55:31;23.90;99.90
59128;DHT22;44912;52.754;5.994;2023-06-05T14:57:56;23.90;99.90
59128;DHT22;44912;52.754;5.994;2023-06-05T15:00:22;24.00;99.90
59128;DHT22;44912;52.754;5.994;2023-06-05T15:02:48;23.80;99.90
59128;DHT22;44912;52.754;5.994;2023-06-05T15:05:13;23.80;99.90
59128;DHT22;44912;52.754;5.994;2023-06-05T15:07:40;23.50;99.90
59128;DHT22;44912;52.754;5.994;2023-06-05T15:10:07;23.30;99.90
59128;DHT22;44912;52.754;5.994;2023-06-05T15:12:34;23.50;99.90
59128;DHT22;44912;52.754;5.994;2023-06-05T15:15:00;23.60;99.90
59128;DHT22;44912;52.754;5.994;2023-06-05T15:17:25;23.80;99.90
59128;DHT22;44912;52.754;5.994;2023-06-05T15:19:51;24.00;99.90
59128;DHT22;44912;52.754;5.994;2023-06-05T15:22:16;24.10;99.90
59128;DHT22;44912;52.754;5.994;2023-06-05T15:24:42;24.30;99.90
59128;DHT22;44912;52.754;5.994;2023-06-05T15:27:07;24.50;99.90
59128;DHT22;44912;52.754;5.994;2023-06-05T15:29:34;24.60;99.90
59128;DHT22;44912;52.754;5.994;2023-06-05T15:32:00;24.60;99.90
59128;DHT22;44912;52.754;5.994;2023-06-05T15:34:25;24.70;99.90
59128;DHT22;44912;52.754;5.994;2023-06-05T15:36:51;24.70;99.90
59128;DHT22;44912;52.754;5.994;2023-06-05T15:39:16;24.70;99.90
59128;DHT22;44912;52.754;5.994;2023-06-05T15:41:42;24.70;99.90
59128;DHT22;44912;52.754;5.994;2023-06-05T15:44:07;24.70;99.90
59128;DHT22;44912;52.754;5.994;2023-06-05T15:46:35;24.70;99.90
59128;DHT22;44912;52.754;5.994;2023-06-05T15:49:01;24.80;99.90
59128;DHT22;44912;52.754;5.994;2023-06-05T15:51:26;24.90;99.90
59128;DHT22;44912;52.754;5.994;2023-06-05T15:53:54;25.00;99.90
59128;DHT22;44912;52.754;5.994;2023-06-05T15:56:20;25.00;99.90
59128;DHT22;44912;52.754;5.994;2023-06-05T15:58:46;25.00;99.90
59128;DHT22;44912;52.754;5.994;2023-06-05T16:01:12;24.90;99.90
59128;DHT22;44912;52.754;5.994;2023-06-05T16:03:38;24.80;99.90
59128;DHT22;44912;52.754;5.994;2023-06-05T16:06:04;24.80;99.90